Time;durP1;ratioP1;P1;durP2;ratioP2;P2;SDS_P1;SDS_P2;PMS_P1;PMS_P2;Temp;Humidity;BMP_temperature;BMP_pressure;BME280_temperature;BME280_humidity;BME280_pressure;Samples;Min_cycle;Max_cycle;Signal;HPM_P1;HPM_P2
2022/12/06 00:01:37;;;;;;;11.87;7.43;;;6.70;99.90;;;;;;5080515;28;20181;-61
2022/12/06 00:04:07;;;;;;;10.47;6.53;;;6.70;99.90;;;;;;5092240;28;20196;-62
2022/12/06 00:06:37;;;;;;;8.93;7.87;;;6.80;99.90;;;;;;5089677;28;20189;-62
2022/12/06 00:09:03;;;;;;;9.77;7.63;;;6.50;99.90;;;;;;5083762;28;20223;-62
2022/12/06 00:11:31;;;;;;;10.20;6.23;;;6.50;99.90;;;;;;5084521;28;20658;-61
2022/12/06 00:14:03;;;;;;;11.33;6.73;;;6.30;99.90;;;;;;5089345;28;20192;-61
2022/12/06 00:16:30;;;;;;;11.97;7.13;;;6.20;99.90;;;;;;5089631;28;20230;-61
2022/12/06 00:18:56;;;;;;;10.93;6.40;;;6.20;99.90;;;;;;5086827;28;20189;-61
2022/12/06 00:21:34;;;;;;;7.90;5.57;;;6.20;99.90;;;;;;5090753;28;20651;-62
2022/12/06 00:24:03;;;;;;;8.53;5.13;;;6.30;99.90;;;;;;5089083;28;20189;-61
2022/12/06 00:26:30;;;;;;;11.50;7.27;;;6.20;99.90;;;;;;5091569;28;20185;-62
2022/12/06 00:28:58;;;;;;;8.80;6.87;;;6.10;99.90;;;;;;5091954;28;20212;-63
2022/12/06 00:31:26;;;;;;;9.20;6.80;;;6.20;99.90;;;;;;5091880;28;20185;-63
2022/12/06 00:33:52;;;;;;;7.00;5.27;;;6.20;99.90;;;;;;5084397;28;20223;-62
2022/12/06 00:36:20;;;;;;;17.30;8.97;;;6.20;99.90;;;;;;5077300;28;20280;-62
2022/12/06 00:38:47;;;;;;;11.63;6.53;;;6.20;99.90;;;;;;5094477;28;20185;-63
2022/12/06 00:41:19;;;;;;;13.53;6.40;;;6.40;99.90;;;;;;5080562;28;20323;-63
2022/12/06 00:43:45;;;;;;;11.90;6.53;;;6.30;99.90;;;;;;5086375;28;20257;-63
2022/12/06 00:46:15;;;;;;;11.17;6.73;;;6.40;99.90;;;;;;5092099;28;20193;-62
2022/12/06 00:48:41;;;;;;;10.93;7.33;;;6.30;99.90;;;;;;5091791;28;20212;-62
2022/12/06 00:51:07;;;;;;;12.87;7.47;;;6.20;99.90;;;;;;5091474;28;20654;-62
2022/12/06 00:53:33;;;;;;;9.27;5.80;;;6.10;99.90;;;;;;5090753;28;20192;-62
2022/12/06 00:55:59;;;;;;;11.00;6.73;;;6.10;99.90;;;;;;5082898;28;20189;-62
2022/12/06 00:58:24;;;;;;;8.70;7.07;;;6.10;99.90;;;;;;5084880;28;20184;-63
2022/12/06 01:00:50;;;;;;;11.23;6.63;;;6.30;99.90;;;;;;5095194;28;20180;-62
2022/12/06 01:03:16;;;;;;;11.83;7.60;;;6.40;99.90;;;;;;5094931;28;20263;-62
2022/12/06 01:05:50;;;;;;;11.70;6.37;;;6.50;99.90;;;;;;5096273;28;20203;-63
2022/12/06 01:08:17;;;;;;;8.23;6.20;;;6.30;99.90;;;;;;5090757;28;20242;-63
2022/12/06 01:10:53;;;;;;;11.77;6.37;;;6.20;99.90;;;;;;5084558;28;20527;-62
2022/12/06 01:13:19;;;;;;;10.30;6.40;;;6.10;99.90;;;;;;5094966;28;20223;-62
2022/12/06 01:15:45;;;;;;;8.90;7.63;;;6.20;99.90;;;;;;5093476;28;20184;-62
2022/12/06 01:18:10;;;;;;;8.70;6.20;;;6.30;99.90;;;;;;5093657;28;20196;-62
2022/12/06 01:20:36;;;;;;;12.33;7.37;;;6.40;99.90;;;;;;5085124;28;20198;-62
2022/12/06 01:23:02;;;;;;;9.23;6.73;;;6.30;99.90;;;;;;5093491;28;20288;-62
2022/12/06 01:25:29;;;;;;;11.10;6.13;;;6.40;99.90;;;;;;5094835;28;20191;-62
2022/12/06 01:27:55;;;;;;;8.03;5.90;;;6.30;99.90;;;;;;5095421;28;20723;-62
2022/12/06 01:30:21;;;;;;;9.00;5.53;;;6.40;99.90;;;;;;5086109;28;20193;-63
2022/12/06 01:32:46;;;;;;;8.40;6.10;;;6.30;99.90;;;;;;5095390;28;20284;-62
2022/12/06 01:35:12;;;;;;;8.40;5.83;;;6.30;99.90;;;;;;5095672;28;20188;-63
2022/12/06 01:37:37;;;;;;;10.23;7.07;;;6.40;99.90;;;;;;5092944;28;20196;-61
2022/12/06 01:40:04;;;;;;;6.40;5.57;;;6.40;99.90;;;;;;5083108;28;20198;-62
2022/12/06 01:42:30;;;;;;;8.47;6.03;;;6.50;99.90;;;;;;5092671;28;20185;-61
2022/12/06 01:44:59;;;;;;;9.00;5.47;;;6.40;99.90;;;;;;5095373;28;20540;-61
2022/12/06 01:47:41;;;;;;;10.13;5.57;;;6.40;99.90;;;;;;5107900;28;20235;-62
2022/12/06 01:50:20;;;;;;;10.17;6.10;;;6.30;99.90;;;;;;5095515;28;20196;-61
2022/12/06 01:53:01;;;;;;;8.60;5.53;;;6.30;99.90;;;;;;5094664;28;20188;-61
2022/12/06 01:55:31;;;;;;;8.40;5.23;;;6.50;99.90;;;;;;5095088;28;20181;-61
2022/12/06 01:58:01;;;;;;;9.80;5.20;;;6.50;99.90;;;;;;5080775;28;20527;-62
2022/12/06 02:00:26;;;;;;;11.33;5.80;;;6.40;99.90;;;;;;5084959;28;20609;-62
2022/12/06 02:02:54;;;;;;;11.30;6.00;;;6.20;99.90;;;;;;5082272;28;20189;-62
2022/12/06 02:05:20;;;;;;;7.03;4.80;;;6.30;99.90;;;;;;5105506;28;20182;-61
2022/12/06 02:07:46;;;;;;;8.07;6.30;;;6.20;99.90;;;;;;5084759;28;20217;-61
2022/12/06 02:10:12;;;;;;;7.70;5.50;;;6.30;99.90;;;;;;5090787;28;20208;-62
2022/12/06 02:12:38;;;;;;;10.10;5.77;;;6.50;99.90;;;;;;5084551;28;20801;-62
2022/12/06 02:15:04;;;;;;;7.97;5.17;;;6.60;99.90;;;;;;5077626;28;20177;-62
2022/12/06 02:17:49;;;;;;;10.27;5.87;;;6.70;99.90;;;;;;5089030;28;20863;-62
2022/12/06 02:21:02;;;;;;;12.10;5.47;;;6.80;99.90;;;;;;5090558;28;20167;-61
2022/12/06 02:24:05;;;;;;;12.33;5.90;;;6.60;99.90;;;;;;5089217;28;20670;-62
2022/12/06 02:26:46;;;;;;;9.27;5.53;;;6.60;99.90;;;;;;5091333;28;20181;-62
2022/12/06 02:29:26;;;;;;;8.40;5.70;;;6.60;99.90;;;;;;5090316;28;20205;-61
2022/12/06 02:32:18;;;;;;;8.87;5.87;;;6.60;99.90;;;;;;5089657;28;20692;-62
2022/12/06 02:34:58;;;;;;;7.50;5.10;;;6.70;99.90;;;;;;5092037;28;20180;-62
2022/12/06 02:37:29;;;;;;;10.00;6.47;;;6.80;99.90;;;;;;5077790;28;20276;-62
2022/12/06 02:40:03;;;;;;;11.07;5.60;;;6.90;99.90;;;;;;5087763;28;20182;-62
2022/12/06 02:42:35;;;;;;;8.80;5.50;;;6.70;99.90;;;;;;5089320;28;20181;-62
2022/12/06 02:45:07;;;;;;;9.53;5.00;;;6.70;99.90;;;;;;5086773;28;20610;-62
2022/12/06 02:47:36;;;;;;;9.10;5.83;;;6.70;99.90;;;;;;5078921;28;20291;-62
2022/12/06 02:50:09;;;;;;;9.77;5.27;;;6.80;99.90;;;;;;5084592;28;20273;-62
2022/12/06 02:52:39;;;;;;;10.20;6.17;;;6.90;99.90;;;;;;5091034;28;20187;-62
2022/12/06 02:55:07;;;;;;;10.27;5.87;;;6.90;99.90;;;;;;5087060;28;20181;-62
2022/12/06 02:57:59;;;;;;;13.07;7.03;;;6.90;99.90;;;;;;5077548;28;20181;-62
2022/12/06 03:00:42;;;;;;;10.60;6.47;;;6.70;99.90;;;;;;5088000;28;20200;-62
2022/12/06 03:03:41;;;;;;;8.20;5.37;;;6.80;99.90;;;;;;5073548;28;20189;-62
2022/12/06 03:06:35;;;;;;;8.97;4.97;;;6.80;99.90;;;;;;5088568;28;20191;-62
2022/12/06 03:09:09;;;;;;;9.20;5.37;;;6.80;99.90;;;;;;5089406;28;20208;-62
2022/12/06 03:11:47;;;;;;;10.50;6.40;;;6.90;99.90;;;;;;5091521;28;20238;-61
2022/12/06 03:14:23;;;;;;;10.13;6.27;;;6.90;99.90;;;;;;5092595;28;20234;-63
2022/12/06 03:17:02;;;;;;;9.73;5.13;;;7.00;99.90;;;;;;5090874;28;20180;-62
2022/12/06 03:19:29;;;;;;;9.27;5.80;;;7.00;99.90;;;;;;5090271;28;20275;-62
2022/12/06 03:22:05;;;;;;;10.70;5.77;;;7.00;99.90;;;;;;5091952;28;20227;-62
2022/12/06 03:24:34;;;;;;;9.63;5.80;;;7.00;99.90;;;;;;5092010;28;20204;-63
2022/12/06 03:27:04;;;;;;;10.10;6.40;;;7.00;99.90;;;;;;5092233;28;20603;-63
2022/12/06 03:29:32;;;;;;;6.87;5.13;;;6.90;99.90;;;;;;5087884;28;20296;-62
2022/12/06 03:32:02;;;;;;;9.40;5.57;;;6.90;99.90;;;;;;5087321;28;20189;-63
2022/12/06 03:34:40;;;;;;;8.53;5.03;;;6.90;99.90;;;;;;5085264;28;20177;-63
2022/12/06 03:37:10;;;;;;;9.67;6.03;;;6.90;99.90;;;;;;5091589;28;20211;-63
2022/12/06 03:40:00;;;;;;;8.07;5.37;;;6.90;99.90;;;;;;5091568;28;20188;-63
2022/12/06 03:42:27;;;;;;;11.23;6.13;;;6.90;99.90;;;;;;5095237;28;20180;-62
2022/12/06 03:44:52;;;;;;;8.73;6.33;;;6.90;99.90;;;;;;5091766;28;20185;-62
2022/12/06 03:47:35;;;;;;;11.03;6.60;;;6.90;99.90;;;;;;5091473;28;20758;-62
2022/12/06 03:50:09;;;;;;;12.20;6.00;;;6.80;99.90;;;;;;5085647;28;20184;-63
2022/12/06 03:52:37;;;;;;;10.80;5.90;;;6.90;99.90;;;;;;5090279;28;20245;-62
2022/12/06 03:55:03;;;;;;;8.80;5.90;;;6.90;99.90;;;;;;5085241;28;20183;-63
2022/12/06 03:57:28;;;;;;;10.03;6.10;;;7.00;99.90;;;;;;5090961;28;20181;-62
2022/12/06 03:59:54;;;;;;;9.63;5.93;;;7.00;99.90;;;;;;5084120;28;20185;-62
2022/12/06 04:02:19;;;;;;;12.07;6.63;;;6.80;99.90;;;;;;5094231;28;20187;-62
2022/12/06 04:04:45;;;;;;;15.17;7.23;;;6.70;99.90;;;;;;5079152;28;20267;-62
2022/12/06 04:07:11;;;;;;;10.53;7.37;;;6.70;99.90;;;;;;5068356;28;20639;-61
2022/12/06 04:09:55;;;;;;;8.80;5.67;;;6.80;99.90;;;;;;5089209;28;20556;-62
2022/12/06 04:15:07;;;;;;;10.03;5.83;;;6.70;99.90;;;;;;5090257;28;20628;-61
2022/12/06 04:20:19;;;;;;;7.77;5.03;;;6.60;99.90;;;;;;5082302;28;20199;-62
2022/12/06 04:23:03;;;;;;;12.57;6.23;;;6.70;99.90;;;;;;5089134;28;20569;-62
2022/12/06 04:25:37;;;;;;;9.97;6.67;;;6.70;99.90;;;;;;5091275;28;20271;-62
2022/12/06 04:39:00;;;;;;;11.93;6.80;;;6.90;99.90;;;;;;5081402;28;20293;-62
2022/12/06 04:44:10;;;;;;;8.97;5.43;;;6.90;99.90;;;;;;5083660;28;20210;-63
2022/12/06 04:46:36;;;;;;;10.40;5.17;;;7.00;99.90;;;;;;5089024;28;20189;-63
2022/12/06 04:49:02;;;;;;;10.07;6.00;;;6.90;99.90;;;;;;5089538;28;20675;-62
2022/12/06 04:51:28;;;;;;;8.17;5.73;;;6.90;99.90;;;;;;5090638;28;20192;-63
2022/12/06 04:53:53;;;;;;;13.77;6.03;;;7.00;99.90;;;;;;5089431;28;20189;-62
2022/12/06 04:56:19;;;;;;;10.37;5.67;;;6.90;99.90;;;;;;5090416;28;20188;-63
2022/12/06 04:58:45;;;;;;;8.67;6.17;;;7.00;99.90;;;;;;5068654;28;20197;-63
2022/12/06 05:01:10;;;;;;;9.83;5.23;;;7.20;99.90;;;;;;5098316;28;20552;-63
2022/12/06 05:03:36;;;;;;;9.80;5.77;;;7.00;99.90;;;;;;5087050;28;20195;-62
2022/12/06 05:06:02;;;;;;;8.63;4.67;;;6.90;99.90;;;;;;5090739;28;20193;-62
2022/12/06 05:08:28;;;;;;;14.23;7.43;;;6.80;99.90;;;;;;5086267;28;20824;-62
2022/12/06 05:10:54;;;;;;;7.90;5.23;;;6.90;99.90;;;;;;5084371;28;20193;-62
2022/12/06 05:13:20;;;;;;;11.00;6.27;;;7.00;99.90;;;;;;5099025;28;20570;-62
2022/12/06 05:16:05;;;;;;;9.57;5.17;;;7.00;99.90;;;;;;5089336;28;20195;-62
2022/12/06 05:18:32;;;;;;;12.47;6.63;;;7.00;99.90;;;;;;5090688;28;20253;-62
2022/12/06 05:21:14;;;;;;;10.00;5.53;;;7.00;99.90;;;;;;5071450;28;20185;-62
2022/12/06 05:23:41;;;;;;;6.40;5.63;;;6.90;99.90;;;;;;5090574;28;20680;-62
2022/12/06 05:26:12;;;;;;;10.97;6.33;;;6.90;99.90;;;;;;5078920;28;20279;-62
2022/12/06 05:28:38;;;;;;;9.50;5.87;;;7.10;99.90;;;;;;5081636;28;20712;-63
2022/12/06 05:31:05;;;;;;;12.73;5.50;;;7.20;99.90;;;;;;5090216;28;20272;-62
2022/12/06 05:33:30;;;;;;;9.60;6.00;;;7.10;99.90;;;;;;5090778;28;20177;-62
2022/12/06 05:35:57;;;;;;;8.87;5.60;;;7.10;99.90;;;;;;5089013;28;20540;-62
2022/12/06 05:38:23;;;;;;;11.67;6.93;;;7.00;99.90;;;;;;5075381;28;20189;-62
2022/12/06 05:40:49;;;;;;;8.83;6.03;;;7.10;99.90;;;;;;5083630;28;20181;-62
2022/12/06 05:43:15;;;;;;;10.37;5.67;;;7.20;99.90;;;;;;5083971;28;20199;-62
2022/12/06 05:45:41;;;;;;;10.97;5.60;;;7.10;99.90;;;;;;5091932;28;20643;-62
2022/12/06 05:48:08;;;;;;;8.37;5.60;;;7.10;99.90;;;;;;5089035;28;20212;-62
2022/12/06 05:50:34;;;;;;;10.10;5.73;;;7.00;99.90;;;;;;5084478;28;20184;-62
2022/12/06 05:53:00;;;;;;;8.73;5.37;;;6.80;99.90;;;;;;5089029;28;20238;-62
2022/12/06 05:55:27;;;;;;;8.57;5.53;;;6.70;99.90;;;;;;5091428;28;20685;-62
2022/12/06 05:57:52;;;;;;;8.10;4.83;;;6.60;99.90;;;;;;5093863;28;20184;-62
2022/12/06 06:00:19;;;;;;;7.80;5.83;;;6.70;99.90;;;;;;5093709;28;20181;-61
2022/12/06 06:02:45;;;;;;;13.07;6.33;;;6.60;99.90;;;;;;5079340;28;20224;-62
2022/12/06 06:05:12;;;;;;;12.97;7.27;;;6.40;99.90;;;;;;5081848;28;20193;-61
2022/12/06 06:07:38;;;;;;;12.40;6.47;;;6.40;99.90;;;;;;5093127;28;20216;-61
2022/12/06 06:10:05;;;;;;;11.43;6.13;;;6.20;99.90;;;;;;5093754;28;20233;-62
2022/12/06 06:12:30;;;;;;;13.10;5.50;;;6.30;99.90;;;;;;5093439;28;20250;-62
2022/12/06 06:14:56;;;;;;;9.43;5.67;;;6.30;99.90;;;;;;5092672;28;20667;-62
2022/12/06 06:17:23;;;;;;;7.70;6.23;;;6.30;99.90;;;;;;5092268;28;20185;-62
2022/12/06 06:19:49;;;;;;;11.07;6.27;;;6.30;99.90;;;;;;5072649;28;20291;-62
2022/12/06 06:22:15;;;;;;;8.07;5.23;;;6.30;99.90;;;;;;5087605;28;20285;-62
2022/12/06 06:24:41;;;;;;;10.13;6.13;;;6.30;99.90;;;;;;5093394;28;20239;-62
2022/12/06 06:27:07;;;;;;;8.13;5.23;;;6.20;99.90;;;;;;5093279;28;20192;-62
2022/12/06 06:29:32;;;;;;;9.57;5.43;;;6.20;99.90;;;;;;5079579;28;20269;-62
2022/12/06 06:31:58;;;;;;;11.47;5.90;;;6.20;99.90;;;;;;5093061;28;20693;-62
2022/12/06 06:34:25;;;;;;;12.77;6.70;;;6.10;99.90;;;;;;5090688;28;20196;-62
2022/12/06 06:36:50;;;;;;;9.93;5.50;;;6.10;99.90;;;;;;5080089;28;20590;-62
2022/12/06 06:39:17;;;;;;;9.10;6.27;;;6.00;99.90;;;;;;5092798;28;20193;-62
2022/12/06 06:41:44;;;;;;;8.27;6.33;;;5.90;99.90;;;;;;5090793;28;20188;-62
2022/12/06 06:44:09;;;;;;;7.63;5.07;;;5.90;99.90;;;;;;5082531;28;20199;-62
2022/12/06 06:46:35;;;;;;;8.97;5.70;;;5.90;99.90;;;;;;5086370;28;20193;-62
2022/12/06 06:49:01;;;;;;;9.50;5.37;;;5.90;99.90;;;;;;5092799;28;20265;-62
2022/12/06 06:51:29;;;;;;;11.40;6.13;;;5.90;99.90;;;;;;5092681;28;20200;-62
2022/12/06 06:53:54;;;;;;;13.83;7.37;;;5.90;99.90;;;;;;5071848;28;20322;-62
2022/12/06 06:56:20;;;;;;;12.33;6.50;;;5.90;99.90;;;;;;5084908;28;20193;-62
2022/12/06 06:58:46;;;;;;;15.60;6.53;;;5.80;99.90;;;;;;5091975;28;20212;-62
2022/12/06 07:01:20;;;;;;;7.67;5.93;;;5.70;99.90;;;;;;5078432;28;20563;-62
2022/12/06 07:03:46;;;;;;;8.53;5.23;;;5.80;99.90;;;;;;5078433;28;20181;-62
2022/12/06 07:06:12;;;;;;;10.00;6.20;;;5.70;99.90;;;;;;5085630;28;20748;-63
2022/12/06 07:08:40;;;;;;;7.87;5.23;;;5.70;99.90;;;;;;5079661;28;20304;-62
2022/12/06 07:11:09;;;;;;;9.57;5.30;;;5.80;99.90;;;;;;5091166;28;20546;-62
2022/12/06 07:13:37;;;;;;;7.17;5.53;;;5.70;99.90;;;;;;5084112;28;20185;-63
2022/12/06 07:16:04;;;;;;;10.00;5.47;;;5.70;99.90;;;;;;5091147;28;20703;-62
2022/12/06 07:18:30;;;;;;;6.53;5.93;;;5.90;99.90;;;;;;5082714;28;20189;-62
2022/12/06 07:21:02;;;;;;;8.37;4.97;;;5.80;99.90;;;;;;5086069;28;20232;-62
2022/12/06 07:23:29;;;;;;;9.87;6.13;;;5.90;99.90;;;;;;5097757;28;20185;-62
2022/12/06 07:26:16;;;;;;;9.93;7.23;;;5.80;99.90;;;;;;5086477;28;20185;-62
2022/12/06 07:28:44;;;;;;;8.70;5.40;;;5.90;99.90;;;;;;5091890;28;20211;-63
2022/12/06 07:31:14;;;;;;;7.67;5.27;;;5.90;99.90;;;;;;5091875;28;20196;-63
2022/12/06 07:33:41;;;;;;;6.73;4.87;;;5.90;99.90;;;;;;5091980;28;20208;-62
2022/12/06 07:36:08;;;;;;;8.97;5.70;;;5.80;99.90;;;;;;5090836;28;20192;-63
2022/12/06 07:38:33;;;;;;;11.60;6.87;;;5.70;99.90;;;;;;5076952;28;20208;-63
2022/12/06 07:44:59;;;;;;;9.47;5.97;;;5.70;99.90;;;;;;5092041;28;20698;-63
2022/12/06 07:46:38;;;;;;;10.43;6.67;;;5.70;99.90;;;;;;5092072;28;20686;-62
2022/12/06 07:49:04;;;;;;;14.87;7.83;;;5.70;99.90;;;;;;5091203;28;20690;-61
2022/12/06 07:51:30;;;;;;;12.80;7.17;;;5.70;99.90;;;;;;5086588;28;20258;-63
2022/12/06 07:53:56;;;;;;;14.43;8.10;;;5.60;99.90;;;;;;5090619;28;20181;-62
2022/12/06 07:56:22;;;;;;;11.47;7.40;;;5.60;99.90;;;;;;5091668;28;20565;-62
2022/12/06 07:58:48;;;;;;;11.10;8.53;;;5.60;99.90;;;;;;5091422;28;20189;-62
2022/12/06 08:01:15;;;;;;;11.03;7.43;;;5.50;99.90;;;;;;5083105;28;20196;-62
2022/12/06 08:03:40;;;;;;;16.73;7.60;;;5.50;99.90;;;;;;5088029;28;20208;-62
2022/12/06 08:06:07;;;;;;;14.20;7.93;;;5.50;99.90;;;;;;5089523;28;20192;-62
2022/12/06 08:08:33;;;;;;;14.57;7.83;;;5.60;99.90;;;;;;5086293;28;20227;-62
2022/12/06 08:11:05;;;;;;;19.17;7.67;;;5.60;99.90;;;;;;5088697;28;20634;-63
2022/12/06 08:13:32;;;;;;;16.80;7.50;;;5.60;99.90;;;;;;5076803;28;20182;-62
2022/12/06 08:15:58;;;;;;;20.20;8.53;;;5.70;99.90;;;;;;5077634;28;21922;-63
2022/12/06 08:18:24;;;;;;;15.63;8.67;;;5.90;99.90;;;;;;5089518;28;20241;-67
2022/12/06 08:20:52;;;;;;;12.50;8.80;;;6.00;99.90;;;;;;5087965;28;20188;-61
2022/12/06 08:23:18;;;;;;;12.57;7.87;;;6.10;99.90;;;;;;5090858;28;20199;-62
2022/12/06 08:25:43;;;;;;;16.00;8.00;;;6.20;99.90;;;;;;5086273;28;20188;-61
2022/12/06 08:28:09;;;;;;;9.63;7.23;;;6.20;99.90;;;;;;5089131;28;20214;-61
2022/12/06 08:30:38;;;;;;;11.50;6.70;;;6.20;99.90;;;;;;5077547;28;20184;-61
2022/12/06 08:33:04;;;;;;;10.57;6.37;;;6.20;99.90;;;;;;5074737;28;20638;-62
2022/12/06 08:35:29;;;;;;;11.27;6.50;;;6.30;99.90;;;;;;5089900;28;20191;-61
2022/12/06 08:37:55;;;;;;;17.03;8.20;;;6.30;99.90;;;;;;5085030;28;20271;-61
2022/12/06 08:40:21;;;;;;;13.43;6.90;;;6.60;99.90;;;;;;5091044;28;20193;-62
2022/12/06 08:42:46;;;;;;;16.60;8.03;;;6.70;99.90;;;;;;5089499;28;20192;-61
2022/12/06 08:45:12;;;;;;;14.30;7.83;;;6.70;99.90;;;;;;5088305;28;20185;-63
2022/12/06 08:47:38;;;;;;;20.80;8.60;;;6.70;99.90;;;;;;5082860;28;20710;-61
2022/12/06 08:50:04;;;;;;;17.37;10.43;;;6.80;99.90;;;;;;5085456;28;20276;-62
2022/12/06 08:52:30;;;;;;;22.33;8.83;;;6.80;99.90;;;;;;5086128;28;20196;-62
2022/12/06 08:54:55;;;;;;;21.60;9.67;;;6.80;99.90;;;;;;5089314;28;20188;-62
2022/12/06 08:57:21;;;;;;;12.43;7.07;;;6.80;99.90;;;;;;5090361;28;20184;-62
2022/12/06 08:59:47;;;;;;;20.57;8.87;;;6.90;99.90;;;;;;5103242;28;20192;-62
2022/12/06 09:02:12;;;;;;;16.40;9.40;;;6.80;99.90;;;;;;5090385;28;20651;-62
2022/12/06 09:04:38;;;;;;;19.50;10.47;;;6.90;99.90;;;;;;5090839;28;20193;-62
2022/12/06 09:07:04;;;;;;;16.57;8.77;;;7.10;99.90;;;;;;5088981;28;20188;-63
2022/12/06 09:09:30;;;;;;;14.90;8.03;;;7.20;99.90;;;;;;5089872;28;20631;-62
2022/12/06 09:11:55;;;;;;;19.97;8.80;;;7.20;99.90;;;;;;5089260;28;20188;-62
2022/12/06 09:14:21;;;;;;;15.10;7.90;;;7.30;99.90;;;;;;5090091;28;20314;-62
2022/12/06 09:16:48;;;;;;;17.43;8.63;;;7.30;99.90;;;;;;5091357;28;20199;-63
2022/12/06 09:19:14;;;;;;;18.10;7.43;;;7.40;99.90;;;;;;5093607;28;20181;-63
2022/12/06 09:21:45;;;;;;;15.17;7.47;;;7.40;99.90;;;;;;5089778;28;20283;-63
2022/12/06 09:24:13;;;;;;;11.10;6.60;;;7.50;99.90;;;;;;5093060;28;20181;-63
2022/12/06 09:26:39;;;;;;;10.83;7.13;;;7.60;99.90;;;;;;5092766;28;20647;-63
2022/12/06 09:29:05;;;;;;;14.83;7.83;;;7.50;99.90;;;;;;5089126;28;20224;-63
2022/12/06 09:31:31;;;;;;;10.83;7.60;;;7.50;99.90;;;;;;5091600;28;20546;-63
2022/12/06 09:33:57;;;;;;;10.03;6.67;;;7.60;99.90;;;;;;5075621;28;20708;-63
2022/12/06 09:36:26;;;;;;;11.77;7.60;;;7.70;99.90;;;;;;5090223;28;20185;-63
2022/12/06 09:39:12;;;;;;;10.30;7.03;;;7.70;99.90;;;;;;5093960;28;20577;-63
2022/12/06 09:42:00;;;;;;;11.57;5.57;;;7.80;99.90;;;;;;5107432;28;20180;-63
2022/12/06 09:44:41;;;;;;;11.03;6.77;;;7.80;99.90;;;;;;5079225;28;20182;-63
2022/12/06 09:47:34;;;;;;;10.20;6.80;;;8.00;99.90;;;;;;5080577;28;20272;-63
2022/12/06 09:50:08;;;;;;;12.77;6.57;;;8.00;99.90;;;;;;5093874;28;20215;-63
2022/12/06 09:52:41;;;;;;;9.60;6.80;;;8.10;99.90;;;;;;5087995;28;20181;-63
2022/12/06 09:55:51;;;;;;;10.00;6.10;;;8.20;99.90;;;;;;5085941;28;20215;-62
2022/12/06 09:58:19;;;;;;;10.43;6.80;;;8.00;99.90;;;;;;5044485;28;20195;-63
2022/12/06 10:01:05;;;;;;;11.10;6.50;;;7.90;99.90;;;;;;5087839;28;20680;-63
2022/12/06 10:03:31;;;;;;;17.23;6.80;;;7.80;99.90;;;;;;5093876;28;20189;-63
2022/12/06 10:06:00;;;;;;;11.87;7.63;;;7.50;99.90;;;;;;5093528;28;20199;-63
2022/12/06 10:08:38;;;;;;;15.03;7.83;;;7.50;99.90;;;;;;5093493;28;20211;-63
2022/12/06 10:11:34;;;;;;;11.63;8.00;;;7.50;99.90;;;;;;5093702;28;20630;-63
2022/12/06 10:14:11;;;;;;;12.80;7.40;;;7.30;99.90;;;;;;5092729;28;20639;-63
2022/12/06 10:17:05;;;;;;;10.57;5.57;;;7.50;99.90;;;;;;5090577;28;20196;-63
2022/12/06 10:19:46;;;;;;;10.73;5.90;;;7.30;99.90;;;;;;5092278;28;20184;-63
2022/12/06 10:22:44;;;;;;;11.97;7.00;;;7.30;99.90;;;;;;5088460;28;20200;-63
2022/12/06 10:25:24;;;;;;;11.47;6.30;;;7.20;99.90;;;;;;5076140;28;20184;-64
2022/12/06 10:28:37;;;;;;;10.03;7.00;;;7.10;99.90;;;;;;5087780;28;20209;-63
2022/12/06 10:31:30;;;;;;;9.17;4.87;;;7.20;99.90;;;;;;5029974;28;20194;-64
2022/12/06 10:33:57;;;;;;;11.13;6.60;;;7.10;99.90;;;;;;5019798;28;20654;-64
2022/12/06 10:36:46;;;;;;;8.33;5.47;;;7.10;99.90;;;;;;5071500;28;20184;-64
2022/12/06 10:39:21;;;;;;;11.17;5.87;;;7.20;99.90;;;;;;5093229;28;20639;-63
2022/12/06 10:42:07;;;;;;;8.20;5.93;;;7.20;99.90;;;;;;5092196;28;20646;-63
2022/12/06 10:47:02;;;;;;;8.60;6.23;;;7.40;99.90;;;;;;5085330;28;20260;-64
2022/12/06 10:47:53;;;;;;;6.63;5.70;;;7.50;99.90;;;;;;5082539;28;20220;-64
2022/12/06 10:50:27;;;;;;;11.03;6.33;;;7.50;99.90;;;;;;5081737;28;20192;-63
2022/12/06 10:53:04;;;;;;;8.33;6.40;;;7.40;99.90;;;;;;5092942;28;20626;-64
2022/12/06 10:55:40;;;;;;;14.50;8.17;;;7.40;99.90;;;;;;5092395;28;20351;-62
2022/12/06 10:58:23;;;;;;;8.67;6.90;;;7.50;99.90;;;;;;5092871;28;20649;-65
2022/12/06 11:00:59;;;;;;;10.73;6.67;;;7.50;99.90;;;;;;5084258;28;20181;-64
2022/12/06 11:03:32;;;;;;;11.40;6.67;;;7.50;99.90;;;;;;5088102;28;20242;-64
2022/12/06 11:06:05;;;;;;;6.77;5.40;;;7.50;99.90;;;;;;5092701;28;20195;-63
2022/12/06 11:08:38;;;;;;;7.40;5.87;;;7.50;99.90;;;;;;5079775;28;20216;-63
2022/12/06 11:11:10;;;;;;;10.13;5.47;;;7.50;99.90;;;;;;5089624;28;20206;-62
2022/12/06 11:13:42;;;;;;;5.23;4.37;;;7.60;99.90;;;;;;5080230;28;20197;-62
2022/12/06 11:16:20;;;;;;;8.40;5.13;;;7.50;99.90;;;;;;5091742;28;20180;-62
2022/12/06 11:18:47;;;;;;;7.17;5.70;;;7.60;99.90;;;;;;5087454;28;20580;-63
2022/12/06 11:21:44;;;;;;;9.43;6.77;;;7.60;99.90;;;;;;5091397;28;21555;-64
2022/12/06 11:24:26;;;;;;;5.60;4.27;;;7.60;99.90;;;;;;5086850;28;20256;-63
2022/12/06 11:27:12;;;;;;;8.50;5.77;;;7.70;99.90;;;;;;5090299;28;20216;-62
2022/12/06 11:29:38;;;;;;;7.93;5.53;;;7.80;99.90;;;;;;5084943;28;20209;-62
2022/12/06 11:32:06;;;;;;;9.77;5.40;;;7.80;99.90;;;;;;5090052;28;20268;-61
2022/12/06 11:34:32;;;;;;;13.70;6.80;;;7.70;99.90;;;;;;5090176;28;20177;-62
2022/12/06 11:37:00;;;;;;;9.60;6.47;;;7.70;99.90;;;;;;5088611;28;20195;-62
2022/12/06 11:39:27;;;;;;;11.67;7.00;;;7.80;99.90;;;;;;5090678;28;20245;-63
2022/12/06 11:41:56;;;;;;;12.87;7.90;;;7.80;99.90;;;;;;5090769;28;20184;-61
2022/12/06 11:44:28;;;;;;;9.43;6.97;;;7.80;99.90;;;;;;5083469;28;20206;-62
2022/12/06 11:46:59;;;;;;;12.43;8.30;;;7.80;99.90;;;;;;5089074;28;20187;-63
2022/12/06 11:49:39;;;;;;;13.83;8.67;;;7.80;99.90;;;;;;5083700;28;20220;-63
2022/12/06 11:52:29;;;;;;;12.67;8.93;;;8.00;99.90;;;;;;5088023;28;20185;-62
2022/12/06 11:55:01;;;;;;;10.90;7.67;;;7.90;99.90;;;;;;5089994;28;20172;-64
2022/12/06 11:57:35;;;;;;;14.30;7.33;;;8.00;99.90;;;;;;5080091;28;20187;-62
2022/12/06 12:00:19;;;;;;;7.60;6.13;;;7.90;99.90;;;;;;5089932;28;20547;-63
2022/12/06 12:02:47;;;;;;;12.20;7.30;;;7.90;99.90;;;;;;5091497;28;20184;-63
2022/12/06 12:05:16;;;;;;;8.27;6.40;;;8.00;99.90;;;;;;5089238;28;20670;-63
2022/12/06 12:07:46;;;;;;;8.60;6.63;;;8.10;99.90;;;;;;5086900;28;20209;-63
2022/12/06 12:10:24;;;;;;;11.50;6.77;;;8.10;99.90;;;;;;5086359;28;20213;-63
2022/12/06 12:15:35;;;;;;;13.03;6.83;;;8.20;99.90;;;;;;5088024;28;20202;-62
2022/12/06 12:18:03;;;;;;;6.47;5.47;;;8.30;99.90;;;;;;5087383;28;20192;-64
2022/12/06 12:20:36;;;;;;;6.07;4.90;;;8.40;99.90;;;;;;5085619;28;20256;-63
2022/12/06 12:23:03;;;;;;;11.73;5.73;;;8.40;99.90;;;;;;5091109;28;20219;-63
2022/12/06 12:25:35;;;;;;;9.83;6.13;;;8.40;99.90;;;;;;5086485;28;20263;-63
2022/12/06 12:28:02;;;;;;;7.10;4.80;;;8.50;99.90;;;;;;5088124;28;20240;-63
2022/12/06 12:30:37;;;;;;;8.17;5.43;;;8.70;99.90;;;;;;5071289;28;20501;-64
2022/12/06 12:33:05;;;;;;;12.43;6.40;;;8.60;99.90;;;;;;5089895;28;20176;-64
2022/12/06 12:35:39;;;;;;;4.90;4.40;;;8.40;99.90;;;;;;5084682;28;20181;-64
2022/12/06 12:38:23;;;;;;;4.97;4.07;;;8.40;99.90;;;;;;5088500;28;20647;-64
2022/12/06 12:41:02;;;;;;;10.67;5.93;;;8.60;99.90;;;;;;5086643;28;20588;-64
2022/12/06 12:43:33;;;;;;;9.83;5.73;;;8.60;99.90;;;;;;5089726;28;20180;-63
2022/12/06 12:46:10;;;;;;;7.07;5.40;;;8.70;99.90;;;;;;5088859;28;20214;-63
2022/12/06 12:48:38;;;;;;;6.07;4.83;;;8.70;99.90;;;;;;5087139;28;20227;-64
2022/12/06 12:51:19;;;;;;;6.30;4.60;;;8.60;99.90;;;;;;5093451;28;20647;-64
2022/12/06 12:53:48;;;;;;;4.77;4.30;;;8.60;99.90;;;;;;5095971;28;20690;-63
2022/12/06 12:56:21;;;;;;;8.00;6.17;;;8.70;99.90;;;;;;5091017;28;20639;-64
2022/12/06 12:58:53;;;;;;;9.90;5.80;;;8.60;99.90;;;;;;5095741;28;20214;-63
2022/12/06 13:01:39;;;;;;;6.33;5.03;;;8.50;99.90;;;;;;5097040;28;20212;-63
2022/12/06 13:04:11;;;;;;;10.83;6.57;;;8.60;99.90;;;;;;5093716;28;20694;-63
2022/12/06 13:06:45;;;;;;;9.97;7.10;;;8.60;99.90;;;;;;5097526;28;20191;-63
2022/12/06 13:09:18;;;;;;;7.70;4.90;;;8.50;99.90;;;;;;5097492;28;20214;-64
2022/12/06 13:11:58;;;;;;;10.60;5.93;;;8.70;99.90;;;;;;5097006;28;20183;-64
2022/12/06 13:14:26;;;;;;;8.73;5.63;;;8.70;99.90;;;;;;5094946;28;20202;-64
2022/12/06 13:16:55;;;;;;;12.23;6.70;;;8.60;99.90;;;;;;5088097;28;20630;-63
2022/12/06 13:19:29;;;;;;;5.67;4.60;;;8.60;99.90;;;;;;5093580;28;20663;-64
2022/12/06 13:21:55;;;;;;;5.70;5.13;;;8.60;99.90;;;;;;5101725;28;20207;-64
2022/12/06 13:24:25;;;;;;;9.47;5.23;;;8.60;99.90;;;;;;5095855;28;20212;-64
2022/12/06 13:26:54;;;;;;;9.63;6.30;;;8.70;99.90;;;;;;5097807;28;20196;-64
2022/12/06 13:29:35;;;;;;;6.80;5.10;;;8.60;99.90;;;;;;5091395;28;20224;-64
2022/12/06 13:32:10;;;;;;;8.70;5.10;;;8.60;99.90;;;;;;5091825;28;20176;-63
2022/12/06 13:34:43;;;;;;;7.17;4.70;;;8.60;99.90;;;;;;5083355;28;20187;-63
2022/12/06 13:37:35;;;;;;;6.33;4.40;;;8.40;99.90;;;;;;5090989;28;20180;-63